sensor_id;sensor_type;location;lat;lon;timestamp;P1;durP1;ratioP1;P2;durP2;ratioP2
20945;SDS011;10632;51.276;7.116;2024-03-22T00:00:22;19.48;;;5.43;;
20945;SDS011;10632;51.276;7.116;2024-03-22T00:02:48;18.95;;;4.90;;
20945;SDS011;10632;51.276;7.116;2024-03-22T00:05:14;17.60;;;5.15;;
20945;SDS011;10632;51.276;7.116;2024-03-22T00:07:41;22.35;;;5.72;;
20945;SDS011;10632;51.276;7.116;2024-03-22T00:10:08;23.65;;;5.65;;
20945;SDS011;10632;51.276;7.116;2024-03-22T00:12:34;25.98;;;5.90;;
20945;SDS011;10632;51.276;7.116;2024-03-22T00:15:01;25.58;;;5.78;;
20945;SDS011;10632;51.276;7.116;2024-03-22T00:17:29;20.13;;;5.15;;
20945;SDS011;10632;51.276;7.116;2024-03-22T00:19:56;19.77;;;5.63;;
20945;SDS011;10632;51.276;7.116;2024-03-22T00:22:22;19.33;;;5.72;;
20945;SDS011;10632;51.276;7.116;2024-03-22T00:24:49;19.67;;;6.15;;
20945;SDS011;10632;51.276;7.116;2024-03-22T00:27:15;17.52;;;5.40;;
20945;SDS011;10632;51.276;7.116;2024-03-22T00:29:42;26.65;;;7.32;;
20945;SDS011;10632;51.276;7.116;2024-03-22T00:32:09;21.23;;;5.55;;
20945;SDS011;10632;51.276;7.116;2024-03-22T00:34:37;23.17;;;5.75;;
20945;SDS011;10632;51.276;7.116;2024-03-22T00:37:03;27.17;;;6.40;;
20945;SDS011;10632;51.276;7.116;2024-03-22T00:39:30;16.63;;;5.53;;
20945;SDS011;10632;51.276;7.116;2024-03-22T00:41:56;21.40;;;5.60;;
20945;SDS011;10632;51.276;7.116;2024-03-22T00:44:23;23.27;;;5.72;;
20945;SDS011;10632;51.276;7.116;2024-03-22T00:46:49;20.08;;;5.18;;
20945;SDS011;10632;51.276;7.116;2024-03-22T00:49:15;20.35;;;5.60;;
20945;SDS011;10632;51.276;7.116;2024-03-22T00:51:43;26.15;;;5.97;;
20945;SDS011;10632;51.276;7.116;2024-03-22T00:54:11;18.17;;;5.95;;
20945;SDS011;10632;51.276;7.116;2024-03-22T00:56:36;20.25;;;5.55;;
20945;SDS011;10632;51.276;7.116;2024-03-22T00:59:03;18.88;;;5.45;;
20945;SDS011;10632;51.276;7.116;2024-03-22T01:01:29;18.23;;;5.53;;
20945;SDS011;10632;51.276;7.116;2024-03-22T01:03:56;16.73;;;5.57;;
20945;SDS011;10632;51.276;7.116;2024-03-22T01:06:22;22.42;;;5.82;;
20945;SDS011;10632;51.276;7.116;2024-03-22T01:08:51;22.98;;;5.40;;
20945;SDS011;10632;51.276;7.116;2024-03-22T01:11:17;15.07;;;5.07;;
20945;SDS011;10632;51.276;7.116;2024-03-22T01:13:44;22.02;;;5.82;;
20945;SDS011;10632;51.276;7.116;2024-03-22T01:16:10;23.33;;;5.28;;
20945;SDS011;10632;51.276;7.116;2024-03-22T01:18:37;18.35;;;4.95;;
20945;SDS011;10632;51.276;7.116;2024-03-22T01:21:03;19.05;;;4.97;;
20945;SDS011;10632;51.276;7.116;2024-03-22T01:23:31;21.48;;;5.97;;
20945;SDS011;10632;51.276;7.116;2024-03-22T01:25:59;17.70;;;4.90;;
20945;SDS011;10632;51.276;7.116;2024-03-22T01:28:25;25.40;;;5.45;;
20945;SDS011;10632;51.276;7.116;2024-03-22T01:30:51;18.15;;;5.43;;
20945;SDS011;10632;51.276;7.116;2024-03-22T01:33:21;22.80;;;4.55;;
20945;SDS011;10632;51.276;7.116;2024-03-22T01:35:47;21.73;;;5.60;;
20945;SDS011;10632;51.276;7.116;2024-03-22T01:38:15;19.88;;;5.13;;
20945;SDS011;10632;51.276;7.116;2024-03-22T01:40:41;19.83;;;4.97;;
20945;SDS011;10632;51.276;7.116;2024-03-22T01:43:09;20.88;;;5.45;;
20945;SDS011;10632;51.276;7.116;2024-03-22T01:45:35;19.10;;;5.40;;
20945;SDS011;10632;51.276;7.116;2024-03-22T01:48:10;19.67;;;5.47;;
20945;SDS011;10632;51.276;7.116;2024-03-22T01:50:40;16.65;;;4.60;;
20945;SDS011;10632;51.276;7.116;2024-03-22T01:53:40;15.43;;;4.50;;
20945;SDS011;10632;51.276;7.116;2024-03-22T01:56:07;15.77;;;5.07;;
20945;SDS011;10632;51.276;7.116;2024-03-22T01:58:36;16.10;;;4.20;;
20945;SDS011;10632;51.276;7.116;2024-03-22T02:01:03;22.35;;;5.70;;
20945;SDS011;10632;51.276;7.116;2024-03-22T02:03:29;20.08;;;6.10;;
20945;SDS011;10632;51.276;7.116;2024-03-22T02:05:56;16.58;;;4.65;;
20945;SDS011;10632;51.276;7.116;2024-03-22T02:08:22;17.40;;;4.95;;
20945;SDS011;10632;51.276;7.116;2024-03-22T02:10:50;25.13;;;5.82;;
20945;SDS011;10632;51.276;7.116;2024-03-22T02:13:18;18.88;;;4.72;;
20945;SDS011;10632;51.276;7.116;2024-03-22T02:15:46;19.55;;;5.70;;
20945;SDS011;10632;51.276;7.116;2024-03-22T02:18:12;16.85;;;4.60;;
20945;SDS011;10632;51.276;7.116;2024-03-22T02:20:38;16.63;;;4.95;;
20945;SDS011;10632;51.276;7.116;2024-03-22T02:23:04;16.60;;;4.72;;
20945;SDS011;10632;51.276;7.116;2024-03-22T02:25:33;19.63;;;4.93;;
20945;SDS011;10632;51.276;7.116;2024-03-22T02:27:59;14.60;;;4.63;;
20945;SDS011;10632;51.276;7.116;2024-03-22T02:30:25;18.10;;;4.95;;
20945;SDS011;10632;51.276;7.116;2024-03-22T02:32:51;18.92;;;5.32;;
20945;SDS011;10632;51.276;7.116;2024-03-22T02:35:18;22.52;;;5.45;;
20945;SDS011;10632;51.276;7.116;2024-03-22T02:37:44;19.65;;;4.88;;
20945;SDS011;10632;51.276;7.116;2024-03-22T02:40:11;15.60;;;4.68;;
20945;SDS011;10632;51.276;7.116;2024-03-22T02:42:39;15.55;;;4.45;;
20945;SDS011;10632;51.276;7.116;2024-03-22T02:45:06;15.55;;;4.40;;
20945;SDS011;10632;51.276;7.116;2024-03-22T02:47:32;18.63;;;4.72;;
20945;SDS011;10632;51.276;7.116;2024-03-22T02:49:59;16.13;;;4.50;;
20945;SDS011;10632;51.276;7.116;2024-03-22T02:52:25;15.80;;;4.18;;
20945;SDS011;10632;51.276;7.116;2024-03-22T02:54:52;16.77;;;4.38;;
20945;SDS011;10632;51.276;7.116;2024-03-22T02:57:18;21.05;;;4.55;;
20945;SDS011;10632;51.276;7.116;2024-03-22T02:59:47;12.18;;;3.97;;
20945;SDS011;10632;51.276;7.116;2024-03-22T03:02:13;16.23;;;5.05;;
20945;SDS011;10632;51.276;7.116;2024-03-22T03:04:40;17.80;;;4.30;;
20945;SDS011;10632;51.276;7.116;2024-03-22T03:07:06;22.38;;;4.80;;
20945;SDS011;10632;51.276;7.116;2024-03-22T03:09:33;18.92;;;3.97;;
20945;SDS011;10632;51.276;7.116;2024-03-22T03:11:59;15.15;;;4.55;;
20945;SDS011;10632;51.276;7.116;2024-03-22T03:14:26;15.05;;;4.15;;
20945;SDS011;10632;51.276;7.116;2024-03-22T03:16:53;14.60;;;3.72;;
20945;SDS011;10632;51.276;7.116;2024-03-22T03:19:21;19.30;;;4.40;;
20945;SDS011;10632;51.276;7.116;2024-03-22T03:21:47;12.63;;;3.90;;
20945;SDS011;10632;51.276;7.116;2024-03-22T03:24:14;18.02;;;4.32;;
20945;SDS011;10632;51.276;7.116;2024-03-22T03:26:40;15.23;;;4.57;;
20945;SDS011;10632;51.276;7.116;2024-03-22T03:29:07;14.80;;;4.50;;
20945;SDS011;10632;51.276;7.116;2024-03-22T03:31:33;15.30;;;4.10;;
20945;SDS011;10632;51.276;7.116;2024-03-22T03:34:01;12.55;;;3.90;;
20945;SDS011;10632;51.276;7.116;2024-03-22T03:36:27;14.02;;;3.75;;
20945;SDS011;10632;51.276;7.116;2024-03-22T03:38:54;10.88;;;3.72;;
20945;SDS011;10632;51.276;7.116;2024-03-22T03:41:20;18.02;;;4.15;;
20945;SDS011;10632;51.276;7.116;2024-03-22T03:43:47;17.58;;;4.45;;
20945;SDS011;10632;51.276;7.116;2024-03-22T03:46:12;13.60;;;4.07;;
20945;SDS011;10632;51.276;7.116;2024-03-22T03:48:39;15.25;;;4.13;;
20945;SDS011;10632;51.276;7.116;2024-03-22T03:51:07;13.40;;;3.92;;
20945;SDS011;10632;51.276;7.116;2024-03-22T03:53:33;12.75;;;4.32;;
20945;SDS011;10632;51.276;7.116;2024-03-22T03:55:59;13.20;;;4.38;;
20945;SDS011;10632;51.276;7.116;2024-03-22T03:58:26;15.15;;;4.05;;
20945;SDS011;10632;51.276;7.116;2024-03-22T04:00:52;17.08;;;4.18;;
20945;SDS011;10632;51.276;7.116;2024-03-22T04:03:20;16.90;;;4.15;;
20945;SDS011;10632;51.276;7.116;2024-03-22T04:06:06;12.65;;;3.63;;
20945;SDS011;10632;51.276;7.116;2024-03-22T04:11:59;16.48;;;3.72;;
20945;SDS011;10632;51.276;7.116;2024-03-22T04:14:27;12.73;;;4.00;;
20945;SDS011;10632;51.276;7.116;2024-03-22T04:16:53;16.20;;;3.92;;
20945;SDS011;10632;51.276;7.116;2024-03-22T04:19:21;15.40;;;4.25;;
20945;SDS011;10632;51.276;7.116;2024-03-22T04:21:49;12.48;;;4.03;;
20945;SDS011;10632;51.276;7.116;2024-03-22T04:24:16;14.05;;;3.83;;
20945;SDS011;10632;51.276;7.116;2024-03-22T04:26:42;20.23;;;4.43;;
20945;SDS011;10632;51.276;7.116;2024-03-22T04:29:09;15.32;;;4.55;;
20945;SDS011;10632;51.276;7.116;2024-03-22T04:31:35;11.30;;;3.80;;
20945;SDS011;10632;51.276;7.116;2024-03-22T04:34:04;15.98;;;4.60;;
20945;SDS011;10632;51.276;7.116;2024-03-22T04:36:32;20.33;;;4.28;;
20945;SDS011;10632;51.276;7.116;2024-03-22T04:39:00;13.23;;;3.60;;
20945;SDS011;10632;51.276;7.116;2024-03-22T04:41:28;11.82;;;3.83;;
20945;SDS011;10632;51.276;7.116;2024-03-22T04:43:55;20.23;;;4.53;;
20945;SDS011;10632;51.276;7.116;2024-03-22T04:46:21;11.95;;;3.75;;
20945;SDS011;10632;51.276;7.116;2024-03-22T04:48:48;13.50;;;3.72;;
20945;SDS011;10632;51.276;7.116;2024-03-22T04:51:14;11.48;;;3.33;;
20945;SDS011;10632;51.276;7.116;2024-03-22T04:53:41;11.13;;;3.60;;
20945;SDS011;10632;51.276;7.116;2024-03-22T04:56:11;11.73;;;3.22;;
20945;SDS011;10632;51.276;7.116;2024-03-22T04:58:38;14.82;;;3.80;;
20945;SDS011;10632;51.276;7.116;2024-03-22T05:01:04;11.23;;;3.78;;
20945;SDS011;10632;51.276;7.116;2024-03-22T05:03:33;14.65;;;4.45;;
20945;SDS011;10632;51.276;7.116;2024-03-22T05:06:02;16.13;;;4.18;;
20945;SDS011;10632;51.276;7.116;2024-03-22T05:08:30;12.75;;;3.72;;
20945;SDS011;10632;51.276;7.116;2024-03-22T05:10:56;11.52;;;3.58;;
20945;SDS011;10632;51.276;7.116;2024-03-22T05:13:24;14.07;;;4.03;;
20945;SDS011;10632;51.276;7.116;2024-03-22T05:15:50;11.38;;;4.28;;
20945;SDS011;10632;51.276;7.116;2024-03-22T05:18:20;10.98;;;3.65;;
20945;SDS011;10632;51.276;7.116;2024-03-22T05:20:46;11.55;;;3.67;;
20945;SDS011;10632;51.276;7.116;2024-03-22T05:23:13;10.60;;;3.47;;
20945;SDS011;10632;51.276;7.116;2024-03-22T05:25:41;14.82;;;3.67;;
20945;SDS011;10632;51.276;7.116;2024-03-22T05:28:10;15.68;;;4.45;;
20945;SDS011;10632;51.276;7.116;2024-03-22T05:30:38;10.43;;;4.03;;
20945;SDS011;10632;51.276;7.116;2024-03-22T05:33:06;11.15;;;3.40;;
20945;SDS011;10632;51.276;7.116;2024-03-22T05:35:34;8.85;;;3.58;;
20945;SDS011;10632;51.276;7.116;2024-03-22T05:38:01;10.88;;;3.95;;
20945;SDS011;10632;51.276;7.116;2024-03-22T05:40:27;12.90;;;3.92;;
20945;SDS011;10632;51.276;7.116;2024-03-22T05:42:56;17.88;;;4.05;;
20945;SDS011;10632;51.276;7.116;2024-03-22T05:45:22;12.32;;;3.67;;
20945;SDS011;10632;51.276;7.116;2024-03-22T05:47:50;13.65;;;3.70;;
20945;SDS011;10632;51.276;7.116;2024-03-22T05:50:17;13.38;;;4.25;;
20945;SDS011;10632;51.276;7.116;2024-03-22T05:52:45;13.30;;;3.72;;
20945;SDS011;10632;51.276;7.116;2024-03-22T05:55:11;11.43;;;3.63;;
20945;SDS011;10632;51.276;7.116;2024-03-22T05:57:38;13.75;;;4.25;;
20945;SDS011;10632;51.276;7.116;2024-03-22T06:00:04;10.05;;;4.00;;
20945;SDS011;10632;51.276;7.116;2024-03-22T06:02:33;16.60;;;4.68;;
20945;SDS011;10632;51.276;7.116;2024-03-22T06:05:03;12.20;;;4.00;;
20945;SDS011;10632;51.276;7.116;2024-03-22T06:07:31;13.77;;;4.30;;
20945;SDS011;10632;51.276;7.116;2024-03-22T06:10:05;10.13;;;3.88;;
20945;SDS011;10632;51.276;7.116;2024-03-22T06:12:33;10.55;;;3.97;;
20945;SDS011;10632;51.276;7.116;2024-03-22T06:14:59;13.60;;;4.40;;
20945;SDS011;10632;51.276;7.116;2024-03-22T06:17:26;10.65;;;3.80;;
20945;SDS011;10632;51.276;7.116;2024-03-22T06:19:52;10.88;;;3.85;;
20945;SDS011;10632;51.276;7.116;2024-03-22T06:22:20;15.52;;;4.93;;
20945;SDS011;10632;51.276;7.116;2024-03-22T06:24:46;15.50;;;3.75;;
20945;SDS011;10632;51.276;7.116;2024-03-22T06:27:13;16.02;;;4.68;;
20945;SDS011;10632;51.276;7.116;2024-03-22T06:29:39;12.98;;;4.70;;
20945;SDS011;10632;51.276;7.116;2024-03-22T06:32:06;13.35;;;4.50;;
20945;SDS011;10632;51.276;7.116;2024-03-22T06:34:35;12.43;;;4.65;;
20945;SDS011;10632;51.276;7.116;2024-03-22T06:37:04;15.90;;;4.32;;
20945;SDS011;10632;51.276;7.116;2024-03-22T06:39:32;13.45;;;4.28;;
20945;SDS011;10632;51.276;7.116;2024-03-22T06:41:59;11.38;;;4.05;;
20945;SDS011;10632;51.276;7.116;2024-03-22T06:44:25;14.70;;;4.45;;
20945;SDS011;10632;51.276;7.116;2024-03-22T06:46:52;13.68;;;4.22;;
20945;SDS011;10632;51.276;7.116;2024-03-22T06:49:18;19.08;;;4.63;;
20945;SDS011;10632;51.276;7.116;2024-03-22T06:51:45;16.35;;;4.60;;
20945;SDS011;10632;51.276;7.116;2024-03-22T06:54:12;15.45;;;4.75;;
20945;SDS011;10632;51.276;7.116;2024-03-22T06:56:40;12.43;;;4.53;;
20945;SDS011;10632;51.276;7.116;2024-03-22T06:59:06;15.23;;;4.88;;
20945;SDS011;10632;51.276;7.116;2024-03-22T07:01:33;13.52;;;4.72;;
20945;SDS011;10632;51.276;7.116;2024-03-22T07:03:59;13.60;;;4.88;;
20945;SDS011;10632;51.276;7.116;2024-03-22T07:06:26;16.30;;;5.40;;
20945;SDS011;10632;51.276;7.116;2024-03-22T07:08:52;21.13;;;5.47;;
20945;SDS011;10632;51.276;7.116;2024-03-22T07:11:19;17.95;;;5.90;;
20945;SDS011;10632;51.276;7.116;2024-03-22T07:13:49;18.33;;;5.65;;
20945;SDS011;10632;51.276;7.116;2024-03-22T07:16:16;16.40;;;5.18;;
20945;SDS011;10632;51.276;7.116;2024-03-22T07:18:42;15.27;;;4.93;;
20945;SDS011;10632;51.276;7.116;2024-03-22T07:21:09;20.67;;;5.97;;
20945;SDS011;10632;51.276;7.116;2024-03-22T07:23:35;19.73;;;6.22;;
20945;SDS011;10632;51.276;7.116;2024-03-22T07:26:02;20.75;;;6.10;;
20945;SDS011;10632;51.276;7.116;2024-03-22T07:28:30;24.75;;;6.43;;
20945;SDS011;10632;51.276;7.116;2024-03-22T07:30:59;15.60;;;5.60;;
20945;SDS011;10632;51.276;7.116;2024-03-22T07:33:25;18.15;;;6.20;;
20945;SDS011;10632;51.276;7.116;2024-03-22T07:35:51;19.05;;;6.00;;
20945;SDS011;10632;51.276;7.116;2024-03-22T07:38:19;20.55;;;5.63;;
20945;SDS011;10632;51.276;7.116;2024-03-22T07:40:46;15.98;;;5.50;;
20945;SDS011;10632;51.276;7.116;2024-03-22T07:43:12;16.27;;;5.60;;
20945;SDS011;10632;51.276;7.116;2024-03-22T07:45:41;21.70;;;6.43;;
20945;SDS011;10632;51.276;7.116;2024-03-22T07:48:09;17.65;;;6.03;;
20945;SDS011;10632;51.276;7.116;2024-03-22T07:50:36;17.95;;;5.95;;
20945;SDS011;10632;51.276;7.116;2024-03-22T07:53:07;23.52;;;6.75;;
20945;SDS011;10632;51.276;7.116;2024-03-22T07:55:34;29.20;;;7.10;;
20945;SDS011;10632;51.276;7.116;2024-03-22T07:58:00;22.60;;;6.85;;
20945;SDS011;10632;51.276;7.116;2024-03-22T08:00:28;21.40;;;6.07;;
20945;SDS011;10632;51.276;7.116;2024-03-22T08:02:53;20.50;;;6.30;;
20945;SDS011;10632;51.276;7.116;2024-03-22T08:05:22;20.00;;;6.38;;
20945;SDS011;10632;51.276;7.116;2024-03-22T08:07:47;19.27;;;6.63;;
20945;SDS011;10632;51.276;7.116;2024-03-22T08:10:17;23.02;;;6.40;;
20945;SDS011;10632;51.276;7.116;2024-03-22T08:12:46;23.25;;;6.93;;
20945;SDS011;10632;51.276;7.116;2024-03-22T08:15:20;24.15;;;6.50;;
20945;SDS011;10632;51.276;7.116;2024-03-22T08:17:46;26.60;;;6.82;;
20945;SDS011;10632;51.276;7.116;2024-03-22T08:20:14;23.10;;;6.60;;
20945;SDS011;10632;51.276;7.116;2024-03-22T08:22:44;22.15;;;6.95;;
20945;SDS011;10632;51.276;7.116;2024-03-22T08:25:10;24.58;;;6.78;;
20945;SDS011;10632;51.276;7.116;2024-03-22T08:27:37;22.42;;;6.50;;
20945;SDS011;10632;51.276;7.116;2024-03-22T08:30:05;23.85;;;7.32;;
20945;SDS011;10632;51.276;7.116;2024-03-22T08:32:31;22.67;;;7.47;;
20945;SDS011;10632;51.276;7.116;2024-03-22T08:34:59;19.27;;;6.43;;
20945;SDS011;10632;51.276;7.116;2024-03-22T08:37:24;22.95;;;6.63;;
20945;SDS011;10632;51.276;7.116;2024-03-22T08:39:53;22.55;;;7.05;;
20945;SDS011;10632;51.276;7.116;2024-03-22T08:42:19;22.40;;;6.95;;
20945;SDS011;10632;51.276;7.116;2024-03-22T08:44:46;23.65;;;6.55;;
20945;SDS011;10632;51.276;7.116;2024-03-22T08:47:12;22.92;;;6.32;;
20945;SDS011;10632;51.276;7.116;2024-03-22T08:49:39;21.48;;;6.43;;
20945;SDS011;10632;51.276;7.116;2024-03-22T08:52:09;21.02;;;6.10;;
20945;SDS011;10632;51.276;7.116;2024-03-22T08:54:36;15.70;;;4.97;;
20945;SDS011;10632;51.276;7.116;2024-03-22T08:57:04;17.08;;;5.10;;
20945;SDS011;10632;51.276;7.116;2024-03-22T08:59:31;22.58;;;6.32;;
20945;SDS011;10632;51.276;7.116;2024-03-22T09:01:57;16.55;;;5.15;;
20945;SDS011;10632;51.276;7.116;2024-03-22T09:06:51;17.38;;;5.45;;
20945;SDS011;10632;51.276;7.116;2024-03-22T09:09:18;18.27;;;5.40;;
20945;SDS011;10632;51.276;7.116;2024-03-22T09:11:44;15.10;;;4.47;;
20945;SDS011;10632;51.276;7.116;2024-03-22T09:14:15;13.95;;;4.65;;
20945;SDS011;10632;51.276;7.116;2024-03-22T09:16:42;12.45;;;4.22;;
20945;SDS011;10632;51.276;7.116;2024-03-22T09:19:13;15.00;;;4.72;;
20945;SDS011;10632;51.276;7.116;2024-03-22T09:21:39;15.50;;;4.80;;
20945;SDS011;10632;51.276;7.116;2024-03-22T09:24:06;15.07;;;4.85;;
20945;SDS011;10632;51.276;7.116;2024-03-22T09:26:32;19.17;;;4.97;;
20945;SDS011;10632;51.276;7.116;2024-03-22T09:29:00;14.52;;;5.00;;
20945;SDS011;10632;51.276;7.116;2024-03-22T09:31:27;17.02;;;4.85;;
20945;SDS011;10632;51.276;7.116;2024-03-22T09:33:55;19.08;;;5.15;;
20945;SDS011;10632;51.276;7.116;2024-03-22T09:36:21;14.88;;;4.47;;
20945;SDS011;10632;51.276;7.116;2024-03-22T09:38:49;19.73;;;5.00;;
20945;SDS011;10632;51.276;7.116;2024-03-22T09:41:15;14.77;;;4.75;;
20945;SDS011;10632;51.276;7.116;2024-03-22T09:43:50;19.67;;;5.13;;
20945;SDS011;10632;51.276;7.116;2024-03-22T09:46:17;16.33;;;4.68;;
20945;SDS011;10632;51.276;7.116;2024-03-22T09:48:48;22.45;;;5.80;;
20945;SDS011;10632;51.276;7.116;2024-03-22T09:51:15;14.38;;;4.40;;
20945;SDS011;10632;51.276;7.116;2024-03-22T09:53:43;14.20;;;4.20;;
20945;SDS011;10632;51.276;7.116;2024-03-22T09:56:10;15.23;;;5.28;;
20945;SDS011;10632;51.276;7.116;2024-03-22T09:58:40;13.73;;;4.72;;
20945;SDS011;10632;51.276;7.116;2024-03-22T10:01:06;12.48;;;4.60;;
20945;SDS011;10632;51.276;7.116;2024-03-22T10:03:33;16.13;;;4.97;;
20945;SDS011;10632;51.276;7.116;2024-03-22T10:06:01;13.80;;;4.45;;
20945;SDS011;10632;51.276;7.116;2024-03-22T10:08:28;15.20;;;4.57;;
20945;SDS011;10632;51.276;7.116;2024-03-22T10:10:54;13.15;;;4.40;;
20945;SDS011;10632;51.276;7.116;2024-03-22T10:13:22;16.00;;;4.47;;
20945;SDS011;10632;51.276;7.116;2024-03-22T10:15:48;20.42;;;4.43;;
20945;SDS011;10632;51.276;7.116;2024-03-22T10:18:15;15.40;;;5.15;;
20945;SDS011;10632;51.276;7.116;2024-03-22T10:20:41;16.83;;;4.53;;
20945;SDS011;10632;51.276;7.116;2024-03-22T10:23:09;13.77;;;4.32;;
20945;SDS011;10632;51.276;7.116;2024-03-22T10:25:35;13.13;;;4.15;;
20945;SDS011;10632;51.276;7.116;2024-03-22T10:28:03;12.18;;;3.38;;
20945;SDS011;10632;51.276;7.116;2024-03-22T10:30:29;12.25;;;4.53;;
20945;SDS011;10632;51.276;7.116;2024-03-22T10:32:56;13.30;;;3.80;;
20945;SDS011;10632;51.276;7.116;2024-03-22T10:35:23;12.90;;;3.95;;
20945;SDS011;10632;51.276;7.116;2024-03-22T10:37:52;13.25;;;3.92;;
20945;SDS011;10632;51.276;7.116;2024-03-22T10:40:20;11.27;;;3.47;;
20945;SDS011;10632;51.276;7.116;2024-03-22T10:42:50;11.02;;;3.85;;
20945;SDS011;10632;51.276;7.116;2024-03-22T10:45:19;11.73;;;4.18;;
20945;SDS011;10632;51.276;7.116;2024-03-22T10:47:50;14.68;;;4.03;;
20945;SDS011;10632;51.276;7.116;2024-03-22T10:50:20;12.93;;;3.90;;
20945;SDS011;10632;51.276;7.116;2024-03-22T10:52:50;15.27;;;4.13;;
20945;SDS011;10632;51.276;7.116;2024-03-22T10:55:22;12.13;;;3.88;;
20945;SDS011;10632;51.276;7.116;2024-03-22T10:57:55;11.73;;;3.38;;
20945;SDS011;10632;51.276;7.116;2024-03-22T11:00:27;9.43;;;3.40;;
20945;SDS011;10632;51.276;7.116;2024-03-22T11:02:54;13.70;;;3.53;;
20945;SDS011;10632;51.276;7.116;2024-03-22T11:05:21;13.48;;;3.58;;
20945;SDS011;10632;51.276;7.116;2024-03-22T11:07:57;12.75;;;4.28;;
20945;SDS011;10632;51.276;7.116;2024-03-22T11:10:27;13.68;;;4.30;;
20945;SDS011;10632;51.276;7.116;2024-03-22T11:12:56;13.77;;;4.32;;
20945;SDS011;10632;51.276;7.116;2024-03-22T11:15:28;17.15;;;4.78;;
20945;SDS011;10632;51.276;7.116;2024-03-22T11:17:55;13.23;;;3.90;;
20945;SDS011;10632;51.276;7.116;2024-03-22T11:20:22;12.52;;;4.25;;
20945;SDS011;10632;51.276;7.116;2024-03-22T11:22:49;14.48;;;4.63;;
20945;SDS011;10632;51.276;7.116;2024-03-22T11:25:16;14.20;;;4.35;;
20945;SDS011;10632;51.276;7.116;2024-03-22T11:27:44;14.70;;;3.88;;
20945;SDS011;10632;51.276;7.116;2024-03-22T11:30:10;13.32;;;4.35;;
20945;SDS011;10632;51.276;7.116;2024-03-22T11:32:37;11.95;;;3.92;;
20945;SDS011;10632;51.276;7.116;2024-03-22T11:35:09;14.13;;;4.28;;
20945;SDS011;10632;51.276;7.116;2024-03-22T11:37:36;13.90;;;4.32;;
20945;SDS011;10632;51.276;7.116;2024-03-22T11:40:03;12.93;;;4.25;;
20945;SDS011;10632;51.276;7.116;2024-03-22T11:42:32;13.00;;;4.50;;
20945;SDS011;10632;51.276;7.116;2024-03-22T11:44:59;13.15;;;4.35;;
20945;SDS011;10632;51.276;7.116;2024-03-22T11:47:27;13.55;;;4.68;;
20945;SDS011;10632;51.276;7.116;2024-03-22T11:49:54;17.15;;;4.97;;
20945;SDS011;10632;51.276;7.116;2024-03-22T11:52:23;18.52;;;5.05;;
20945;SDS011;10632;51.276;7.116;2024-03-22T11:54:50;12.75;;;4.53;;
20945;SDS011;10632;51.276;7.116;2024-03-22T11:57:21;12.48;;;4.30;;
20945;SDS011;10632;51.276;7.116;2024-03-22T11:59:47;15.75;;;4.40;;
20945;SDS011;10632;51.276;7.116;2024-03-22T12:02:15;18.02;;;4.43;;
20945;SDS011;10632;51.276;7.116;2024-03-22T12:04:41;12.05;;;4.40;;
20945;SDS011;10632;51.276;7.116;2024-03-22T12:07:10;16.75;;;5.07;;
20945;SDS011;10632;51.276;7.116;2024-03-22T12:09:36;16.15;;;5.03;;
20945;SDS011;10632;51.276;7.116;2024-03-22T12:12:04;15.18;;;4.57;;
20945;SDS011;10632;51.276;7.116;2024-03-22T12:14:33;21.38;;;5.40;;
20945;SDS011;10632;51.276;7.116;2024-03-22T12:17:00;16.40;;;5.25;;
20945;SDS011;10632;51.276;7.116;2024-03-22T12:19:28;16.15;;;5.50;;
20945;SDS011;10632;51.276;7.116;2024-03-22T12:21:55;12.50;;;4.40;;
20945;SDS011;10632;51.276;7.116;2024-03-22T12:24:24;13.02;;;4.50;;
20945;SDS011;10632;51.276;7.116;2024-03-22T12:26:52;14.35;;;5.05;;
20945;SDS011;10632;51.276;7.116;2024-03-22T12:29:18;14.80;;;4.45;;
20945;SDS011;10632;51.276;7.116;2024-03-22T12:31:45;13.82;;;4.28;;
20945;SDS011;10632;51.276;7.116;2024-03-22T12:34:12;13.13;;;4.57;;
20945;SDS011;10632;51.276;7.116;2024-03-22T12:36:40;17.20;;;5.43;;
20945;SDS011;10632;51.276;7.116;2024-03-22T12:39:06;11.70;;;4.60;;
20945;SDS011;10632;51.276;7.116;2024-03-22T12:41:33;11.90;;;4.22;;
20945;SDS011;10632;51.276;7.116;2024-03-22T12:44:00;13.07;;;4.30;;
20945;SDS011;10632;51.276;7.116;2024-03-22T12:46:28;17.15;;;4.95;;
20945;SDS011;10632;51.276;7.116;2024-03-22T12:48:54;17.90;;;4.88;;
20945;SDS011;10632;51.276;7.116;2024-03-22T12:51:21;15.32;;;4.47;;
20945;SDS011;10632;51.276;7.116;2024-03-22T12:53:49;11.45;;;4.30;;
20945;SDS011;10632;51.276;7.116;2024-03-22T12:56:16;16.58;;;4.70;;
20945;SDS011;10632;51.276;7.116;2024-03-22T12:58:42;17.70;;;4.93;;
20945;SDS011;10632;51.276;7.116;2024-03-22T13:01:09;15.75;;;4.97;;
20945;SDS011;10632;51.276;7.116;2024-03-22T13:03:35;12.93;;;4.38;;
20945;SDS011;10632;51.276;7.116;2024-03-22T13:06:03;13.98;;;4.43;;
20945;SDS011;10632;51.276;7.116;2024-03-22T13:08:30;15.07;;;5.07;;
20945;SDS011;10632;51.276;7.116;2024-03-22T13:10:58;15.70;;;4.88;;
20945;SDS011;10632;51.276;7.116;2024-03-22T13:13:24;17.95;;;5.45;;
20945;SDS011;10632;51.276;7.116;2024-03-22T13:15:51;13.90;;;5.03;;
20945;SDS011;10632;51.276;7.116;2024-03-22T13:18:17;15.50;;;4.65;;
20945;SDS011;10632;51.276;7.116;2024-03-22T13:20:46;19.83;;;5.45;;
20945;SDS011;10632;51.276;7.116;2024-03-22T13:23:12;15.10;;;5.28;;
20945;SDS011;10632;51.276;7.116;2024-03-22T13:25:39;16.50;;;5.28;;
20945;SDS011;10632;51.276;7.116;2024-03-22T13:28:07;14.15;;;5.30;;
20945;SDS011;10632;51.276;7.116;2024-03-22T13:30:34;20.08;;;4.90;;
20945;SDS011;10632;51.276;7.116;2024-03-22T13:33:00;17.05;;;5.15;;
20945;SDS011;10632;51.276;7.116;2024-03-22T13:35:27;16.08;;;4.55;;
20945;SDS011;10632;51.276;7.116;2024-03-22T13:37:53;16.42;;;4.82;;
20945;SDS011;10632;51.276;7.116;2024-03-22T13:40:20;16.10;;;5.40;;
20945;SDS011;10632;51.276;7.116;2024-03-22T13:42:47;20.98;;;5.22;;
20945;SDS011;10632;51.276;7.116;2024-03-22T13:45:15;21.17;;;5.95;;
20945;SDS011;10632;51.276;7.116;2024-03-22T13:47:42;16.80;;;5.30;;
20945;SDS011;10632;51.276;7.116;2024-03-22T13:50:09;15.50;;;5.68;;
20945;SDS011;10632;51.276;7.116;2024-03-22T13:52:35;15.20;;;5.45;;
20945;SDS011;10632;51.276;7.116;2024-03-22T13:55:02;15.27;;;4.95;;
20945;SDS011;10632;51.276;7.116;2024-03-22T13:57:30;16.08;;;4.93;;
20945;SDS011;10632;51.276;7.116;2024-03-22T13:59:58;13.55;;;4.60;;
20945;SDS011;10632;51.276;7.116;2024-03-22T14:02:26;10.63;;;3.78;;
20945;SDS011;10632;51.276;7.116;2024-03-22T14:04:53;11.15;;;3.78;;
20945;SDS011;10632;51.276;7.116;2024-03-22T14:07:19;9.48;;;3.35;;
20945;SDS011;10632;51.276;7.116;2024-03-22T14:09:46;14.25;;;3.90;;
20945;SDS011;10632;51.276;7.116;2024-03-22T14:12:14;13.25;;;3.55;;
20945;SDS011;10632;51.276;7.116;2024-03-22T14:14:41;12.00;;;3.38;;
20945;SDS011;10632;51.276;7.116;2024-03-22T14:17:08;12.27;;;3.60;;
20945;SDS011;10632;51.276;7.116;2024-03-22T14:19:35;10.50;;;3.28;;
20945;SDS011;10632;51.276;7.116;2024-03-22T14:22:02;13.75;;;3.25;;
20945;SDS011;10632;51.276;7.116;2024-03-22T14:24:28;12.20;;;3.75;;
20945;SDS011;10632;51.276;7.116;2024-03-22T14:26:56;12.55;;;3.78;;
20945;SDS011;10632;51.276;7.116;2024-03-22T14:29:22;11.65;;;3.60;;
20945;SDS011;10632;51.276;7.116;2024-03-22T14:31:49;11.23;;;3.20;;
20945;SDS011;10632;51.276;7.116;2024-03-22T14:34:14;13.30;;;3.30;;
20945;SDS011;10632;51.276;7.116;2024-03-22T14:36:44;10.52;;;3.08;;
20945;SDS011;10632;51.276;7.116;2024-03-22T14:39:10;10.38;;;3.47;;
20945;SDS011;10632;51.276;7.116;2024-03-22T14:41:37;13.90;;;3.50;;